TFM - Tactical Decision Aid
ID: Runway Winds: CIG/VIS Threshold:

KEWR - Newark Intl, NJ, US

Updated at: 2151 UTC 23 Apr 2019
Latest TAF at: 1933 UTC 23 Apr 2019

TAF Board

Time2051Z 23/22Z 23/23Z 24/00Z 24/01Z 24/02Z 24/03Z 24/04Z 24/05Z 24/06Z 24/07Z 24/08Z 24/09Z 24/10Z>>
Type OBS PRVL PRVL PRVL PRVL PRVL PRVL PRVL PRVL PRVL PRVL PRVL PRVL PRVL
VIS 10 >6 >6 >6 >6 >6 >6 >6 >6 >6 >6 >6 >6 >6
CIG 250 250 250 250 250 50 50 50 50 50 50 -- -- --
Cover BKN BKN BKN BKN BKN BKN BKN BKN BKN BKN BKN SCT SCT SCT
FltCat VFR VFR VFR VFR VFR VFR VFR VFR VFR VFR VFR VFR VFR VFR
WX -- -- -- -- -- -- -- -- -- -- -- -- -- --
WDir 120 170 170 170 170 210 210 210 210 210 210 290 290 290
WSpd 8 9 9 9 9 13 13 13 13 13 13 11 11 11
WGst -- -- -- -- -- -- -- -- -- -- -- -- -- --

TDA Impact Legend

  None Marginal Slight Moderate High
Visibility (sm) >5 3≤X≤5 1≤X<3 0.5≤X<1 <0.5
Ceiling (100 ft) >30 10≤X≤30 4≤X<10 2≤X<4 <2
Wind Speed (kt) <15 15≤X<25 25≤X<30 ≥30
Wind Gust (kt) <15 15≤X<25 25≤X<35 ≥35
Weather No Wx Reported VCTS -TS,-FZRA TS,FZRA +TS,+FZRA
TAF
KEWR 231933Z 2320/2424 17009KT P6SM FEW050 FEW150 BKN250
  FM240200 21013KT P6SM FEW035 BKN050 BKN120
  FM240800 29011KT P6SM SCT050
  FM241400 29014G24KT P6SM FEW050


METAR
KEWR 232051Z 12008KT 10SM FEW060 FEW160 BKN250 21/09 A2985 RMK AO2 SLP106 T02060094 56016
KEWR 231951Z 15010KT 10SM FEW055 FEW160 SCT200 BKN250 22/09 A2986 RMK AO2 SLP111 T02170094
KEWR 231851Z 21003KT 10SM FEW050 FEW150 SCT190 BKN250 24/09 A2987 RMK AO2 SLP115 T02440089

Radar Display
Forecast Discussion